Latest Weather Observations for Mount William

IDV60801

Issued at 4:03 pm EDT Tuesday 10 December 2019 (issued every 10 minutes, with the page automatically refreshed every 10 minutes)

About weather observations | Map of weather stations | Latest weather observations for VIC | Other Formats
Station Details ID: 079103 Name: MOUNT WILLIAM Lat: -37.30 Lon: 142.60 Height: 1150.0 m
Data from the previous 72 hours. | See also: Recent months at Mount William
Date/Time
EDT
Temp
°C
App
Temp
°C
Dew
Point
°C
Rel
Hum
%
Delta-T
°C
Wind Press
QNH
hPa
Press
MSL
hPa
Rain since
9am
mm
Dir  Spd
km/h
Gust
km/h
Spd
kts
Gust
kts
10/04:00pm 11.7 4.3 5.1 64 3.2 SSW 33 43 18 23 - - 0.0
10/03:30pm 11.7 5.7 5.1 64 3.2 S 26 39 14 21 - - 0.0
10/03:00pm 11.2 5.3 4.0 61 3.4 S 24 43 13 23 - - 0.0
10/02:30pm 12.2 7.9 5.1 62 3.5 S 17 26 9 14 - - 0.0
10/02:00pm 11.7 7.7 4.9 63 3.3 SSW 15 24 8 13 - - 0.0
10/01:30pm 11.4 7.8 5.1 65 3.1 SW 13 24 7 13 - - 0.0
10/01:00pm 11.8 7.7 2.3 52 4.4 SW 13 20 7 11 - - 0.0
10/12:30pm 11.5 7.7 4.0 60 3.6 WSW 13 20 7 11 - - 0.0
10/12:00pm 10.2 5.4 4.6 68 2.7 SSW 19 32 10 17 - - 0.0
10/11:30am 9.0 4.4 6.6 85 1.2 SW 20 28 11 15 - - 0.0
10/11:00am 8.5 4.5 4.7 77 1.8 SW 15 22 8 12 - - 0.0
10/10:30am 9.9 6.9 6.1 77 1.9 WSW 11 19 6 10 - - 0.0
10/10:00am 10.4 7.4 6.2 75 2.1 SW 11 17 6 9 - - 0.0
10/09:30am 10.3 5.8 6.1 75 2.1 SW 19 32 10 17 - - 0.0
10/09:00am 10.8 6.2 5.8 71 2.5 SW 19 32 10 17 - - 0.0
10/08:30am 11.8 7.2 3.6 57 3.9 SW 17 22 9 12 - - 0.0
10/08:00am 12.0 6.0 0.8 46 5.0 SSW 22 32 12 17 - - 0.0
10/07:30am 12.6 6.2 -1.7 37 6.1 SW 22 32 12 17 - - 0.0
10/07:00am 10.1 3.5 2.2 58 3.6 SSW 26 33 14 18 - - 0.0
10/06:30am 9.7 1.9 1.4 56 3.7 SSW 32 43 17 23 - - 0.0
10/06:00am 8.9 1.5 1.8 61 3.2 SSW 30 37 16 20 - - 0.0
10/05:30am 9.3 3.1 1.9 60 3.3 SW 24 35 13 19 - - 0.0
10/05:00am 9.3 3.2 0.5 54 3.8 SW 22 33 12 18 - - 0.0
10/04:30am 8.9 2.1 3.3 68 2.6 SSW 28 35 15 19 - - 0.0
10/04:00am 10.7 3.8 0.2 48 4.6 SW 26 39 14 21 - - 0.0
10/03:30am 12.2 5.3 -2.8 35 6.2 SW 24 35 13 19 - - 0.0
10/03:00am 11.9 4.8 -1.3 40 5.6 SW 26 35 14 19 - - 0.0
10/02:30am 13.2 5.6 -2.3 34 6.6 SW 28 39 15 21 - - 0.0
10/02:00am 13.5 5.2 -1.6 35 6.5 SW 32 44 17 24 - - 0.0
10/01:30am 13.1 7.3 2.1 47 5.1 WSW 22 32 12 17 - - 0.0
10/01:00am 14.6 8.3 3.7 48 5.3 WSW 26 39 14 21 - - 0.0
10/12:30am 14.4 10.2 8.4 67 3.2 WSW 20 30 11 16 - - 0.0
10/12:00am 14.6 8.9 8.3 66 3.4 WSW 28 43 15 23 - - 0.0
 
Date/Time
EDT
Temp
°C
App
Temp
°C
Dew
Point
°C
Rel
Hum
%
Delta-T
°C
Wind Press
QNH
hPa
Press
MSL
hPa
Rain since
9am
mm
Dir  Spd
km/h
Gust
km/h
Spd
kts
Gust
kts
09/11:30pm 13.0 6.4 8.7 75 2.3 WSW 33 56 18 30 - - 0.0
09/11:00pm 15.3 8.5 3.1 44 5.9 WSW 28 57 15 31 - - 0.0
09/10:30pm 14.9 5.6 0.7 38 6.5 WSW 39 59 21 32 - - 0.0
09/10:13pm 14.5 4.7 -0.4 36 6.6 WSW 41 65 22 35 - - 0.0
09/10:00pm 15.1 4.8 0.2 36 6.8 WSW 44 61 24 33 - - 0.0
09/09:36pm 15.4 6.8 0.4 36 6.9 WSW 35 54 19 29 - - 0.0
09/09:30pm 14.3 4.9 2.5 45 5.6 WSW 41 54 22 29 - - 0.0
09/09:00pm 16.0 7.5 0.6 35 7.1 WSW 35 56 19 30 - - 0.0
09/08:59pm 16.2 7.7 0.7 35 7.2 WSW 35 56 19 30 - - 0.0
09/08:30pm 15.2 9.0 8.0 62 3.8 WSW 30 43 16 23 - - 0.0
09/08:00pm 14.9 11.0 10.7 76 2.4 WSW 22 35 12 19 - - 0.0
09/07:30pm 18.3 11.6 8.0 51 5.6 WSW 33 48 18 26 - - 0.0
09/07:00pm 18.9 11.7 9.1 53 5.4 WSW 37 50 20 27 - - 0.0
09/06:30pm 21.3 15.7 8.9 45 6.9 WSW 28 43 15 23 - - 0.0
09/06:00pm 22.8 17.3 7.4 37 8.5 WSW 26 37 14 20 - - 0.0
09/05:30pm 24.4 19.2 5.7 30 10.1 WSW 22 35 12 19 - - 0.0
09/05:00pm 23.6 16.3 2.4 25 10.7 WSW 30 43 16 23 - - 0.0
09/04:30pm 23.1 15.9 0.9 23 10.9 W 28 33 15 18 - - 0.0
09/04:00pm 24.1 16.8 2.3 24 11.0 W 30 39 16 21 - - 0.0
09/03:30pm 24.5 17.5 2.0 23 11.3 WSW 28 57 15 31 - - 0.0
09/03:22pm 25.6 17.7 -1.2 17 12.9 W 30 54 16 29 - - 0.0
09/03:00pm 27.3 19.0 -1.6 15 13.9 W 32 48 17 26 - - 0.0
09/02:53pm 26.6 18.9 -3.1 14 13.9 W 28 48 15 26 - - 0.0
09/02:30pm 26.6 18.9 -3.1 14 13.9 WNW 28 41 15 22 - - 0.0
09/02:00pm 27.3 20.0 -2.5 14 14.1 NW 26 41 14 22 - - 0.0
09/01:30pm 26.8 19.5 -2.9 14 13.9 NW 26 44 14 24 - - 0.0
09/01:00pm 27.0 19.9 -0.9 16 13.6 NW 26 44 14 24 - - 0.0
09/12:30pm 27.0 19.7 -0.1 17 13.4 NW 28 43 15 23 - - 0.0
09/12:01pm 24.9 16.8 -0.3 19 12.2 NNW 32 54 17 29 - - 0.0
09/12:00pm 24.5 16.7 -0.6 19 12.1 NNW 30 43 16 23 - - 0.0
09/11:30am 24.2 16.4 -0.9 19 12.0 NNW 30 61 16 33 - - 0.0
09/11:05am 23.7 16.3 -0.6 20 11.6 NW 28 48 15 26 - - 0.0
09/11:00am 23.7 16.8 0.1 21 11.4 NW 26 37 14 20 - - 0.0
09/10:30am 21.2 12.6 -2.6 20 10.7 NNW 33 52 18 28 - - 0.0
09/10:03am 21.7 12.2 -3.6 18 11.3 NNW 37 57 20 31 - - 0.0
09/10:00am 22.0 12.2 -3.4 18 11.4 NNW 39 57 21 31 - - 0.0
09/09:30am 21.3 10.7 -3.2 19 10.9 NNW 43 63 23 34 - - 0.0
09/09:00am 20.6 10.0 -3.1 20 10.5 N 43 65 23 35 - - 0.0
09/08:30am 20.4 9.8 -3.3 20 10.5 NNW 43 63 23 34 - - 0.0
09/08:00am 20.0 9.4 -3.0 21 10.2 N 43 67 23 36 - - 0.0
09/07:31am 19.6 9.8 -2.7 22 9.9 NNW 39 61 21 33 - - 0.0
09/07:30am 19.5 9.8 -2.2 23 9.7 NNW 39 57 21 31 - - 0.0
09/07:00am 19.6 11.1 -1.5 24 9.6 N 33 54 18 29 - - 0.0
09/06:30am 19.2 10.7 -1.8 24 9.5 N 33 54 18 29 - - 0.0
09/06:05am 19.2 10.9 -1.8 24 9.5 N 32 52 17 28 - - 0.0
09/06:00am 19.1 10.7 -1.4 25 9.3 N 33 52 18 28 - - 0.0
09/05:30am 18.9 11.1 -1.0 26 9.1 N 30 52 16 28 - - 0.0
09/05:00am 19.4 10.8 -2.2 23 9.7 N 33 54 18 29 - - 0.0
09/04:53am 19.2 10.7 -1.8 24 9.5 N 33 54 18 29 - - 0.0
09/04:30am 19.0 10.6 -1.4 25 9.3 N 33 52 18 28 - - 0.0
09/04:07am 19.1 11.2 -1.4 25 9.3 NNE 30 50 16 27 - - 0.0
09/04:00am 19.1 10.8 -1.9 24 9.4 N 32 46 17 25 - - 0.0
09/03:30am 19.3 10.8 -1.7 24 9.5 N 33 46 18 25 - - 0.0
09/03:00am 19.4 11.1 -1.7 24 9.6 N 32 46 17 25 - - 0.0
09/02:30am 19.5 11.6 -1.6 24 9.6 N 30 41 16 22 - - 0.0
09/02:00am 19.5 12.0 -1.6 24 9.6 N 28 39 15 21 - - 0.0
09/01:30am 19.7 11.4 -1.4 24 9.6 N 32 44 17 24 - - 0.0
09/01:00am 19.8 11.6 -1.3 24 9.7 N 32 43 17 23 - - 0.0
09/12:30am 19.6 11.3 -1.5 24 9.6 N 32 39 17 21 - - 0.0
09/12:00am 19.6 12.2 -0.9 25 9.4 N 28 37 15 20 - - 0.0
 
Date/Time
EDT
Temp
°C
App
Temp
°C
Dew
Point
°C
Rel
Hum
%
Delta-T
°C
Wind Press
QNH
hPa
Press
MSL
hPa
Rain since
9am
mm
Dir  Spd
km/h
Gust
km/h
Spd
kts
Gust
kts
08/11:30pm 20.0 12.9 -1.2 24 9.7 N 26 35 14 19 - - 0.0
08/11:00pm 20.1 12.6 -1.1 24 9.8 N 28 37 15 20 - - 0.0
08/10:30pm 20.0 12.1 -1.2 24 9.7 N 30 39 16 21 - - 0.0
08/10:00pm 20.1 13.4 -1.1 24 9.8 N 24 33 13 18 - - 0.0
08/09:30pm 20.1 14.2 -1.1 24 9.8 NNE 20 30 11 16 - - 0.0
08/09:00pm 20.1 14.7 -1.1 24 9.8 N 17 22 9 12 - - 0.0
08/08:30pm 20.3 15.3 -0.9 24 9.8 N 15 20 8 11 - - 0.0
08/08:00pm 20.5 16.7 -0.7 24 9.9 NNW 9 15 5 8 - - 0.0
08/07:30pm 20.9 17.5 -0.4 24 10.0 N 7 15 4 8 - - 0.0
08/07:00pm 21.4 17.3 0.0 24 10.2 NNW 11 19 6 10 - - 0.0
08/06:30pm 21.8 17.9 0.9 25 10.1 NNW 11 17 6 9 - - 0.0
08/06:00pm 22.1 19.0 1.2 25 10.2 N 7 13 4 7 - - 0.0
08/05:30pm 22.6 18.7 1.0 24 10.6 N 11 19 6 10 - - 0.0
08/05:00pm 22.7 19.4 2.2 26 10.3 N 9 17 5 9 - - 0.0
08/04:30pm 23.0 19.8 3.0 27 10.2 NNE 9 15 5 8 - - 0.0
08/04:00pm 23.9 21.2 3.8 27 10.4 NNE 7 15 4 8 - - 0.0
08/03:30pm 22.5 19.9 4.1 30 9.5 NW 7 17 4 9 - - 0.0
08/03:00pm 22.6 19.8 5.1 32 9.2 NNE 9 19 5 10 - - 0.0
08/02:30pm 21.9 19.7 5.3 34 8.7 NE 6 13 3 7 - - 0.0
08/02:00pm 21.1 18.9 5.1 35 8.4 NE 6 9 3 5 - - 0.0
08/01:30pm 19.5 16.8 2.8 33 8.3 WNW 6 11 3 6 - - 0.0
08/01:00pm 19.9 17.3 4.4 36 7.9 NW 7 17 4 9 - - 0.0
08/12:30pm 19.7 16.9 3.4 34 8.2 NW 7 17 4 9 - - 0.0
08/12:00pm 18.1 14.9 2.8 36 7.5 W 9 17 5 9 - - 0.0
08/11:30am 17.4 14.4 0.6 32 7.8 WSW 6 11 3 6 - - 0.0
08/11:00am 16.5 13.2 0.2 33 7.5 W 7 11 4 6 - - 0.0
08/10:30am 15.9 13.9 7.1 56 4.6 WSW 7 9 4 5 - - 0.0
08/10:00am 16.6 13.3 -4.6 23 8.8 WSW 4 7 2 4 - - 0.0
08/09:30am 16.9 13.4 -10.7 14 10.1 WSW 2 6 1 3 - - 0.0
08/09:00am 15.8 13.1 -2.6 28 7.9 WSW 2 6 1 3 - - 0.0
08/08:30am 15.3 12.0 -1.3 32 7.3 SW 6 7 3 4 - - 0.0
08/08:00am 14.6 10.2 -2.3 31 7.2 WSW 11 13 6 7 - - 0.0
08/07:30am 13.7 9.4 -1.9 34 6.7 WSW 11 13 6 7 - - 0.0
08/07:00am 13.0 7.9 -2.1 35 6.4 WSW 15 15 8 8 - - 0.0
08/06:30am 12.3 6.4 -2.3 36 6.1 WSW 19 20 10 11 - - 0.0
08/06:00am 12.3 6.7 -2.7 35 6.2 WSW 17 19 9 10 - - 0.0
08/05:30am 12.1 6.2 -2.5 36 6.1 WSW 19 20 10 11 - - 0.0
08/05:00am 12.4 5.8 -3.0 34 6.4 WSW 22 26 12 14 - - 0.0
08/04:30am 12.5 5.6 -2.5 35 6.3 WSW 24 28 13 15 - - 0.0
08/04:00am 12.3 6.4 -2.3 36 6.1 WSW 19 22 10 12 - - 0.0
08/03:30am 11.5 6.2 -0.6 43 5.2 WSW 17 20 9 11 - - 0.0
08/03:00am 11.5 6.5 -0.9 42 5.3 WSW 15 20 8 11 - - 0.0
08/02:30am 11.5 6.6 -0.6 43 5.2 WSW 15 20 8 11 - - 0.0
08/02:00am 11.8 6.9 -0.7 42 5.4 WSW 15 20 8 11 - - 0.0
08/01:30am 11.8 6.9 -0.7 42 5.4 WSW 15 20 8 11 - - 0.0
08/01:00am 11.9 6.0 -0.6 42 5.4 WSW 20 24 11 13 - - 0.0
08/12:30am 11.3 5.7 -0.2 45 5.0 W 19 22 10 12 - - 0.0
08/12:00am 11.0 6.1 -0.5 45 5.0 WSW 15 19 8 10 - - 0.0
 
Date/Time
EDT
Temp
°C
App
Temp
°C
Dew
Point
°C
Rel
Hum
%
Delta-T
°C
Wind Press
QNH
hPa
Press
MSL
hPa
Rain since
9am
mm
Dir  Spd
km/h
Gust
km/h
Spd
kts
Gust
kts
07/11:30pm 10.9 6.4 -0.2 46 4.8 WSW 13 17 7 9 - - 0.0
07/11:00pm 10.7 4.8 -2.3 40 5.4 WSW 19 20 10 11 - - 0.0
07/10:30pm 10.6 5.1 0.3 49 4.5 WSW 19 20 10 11 - - 0.0
07/10:00pm 10.2 4.5 2.6 59 3.5 SW 22 26 12 14 - - 0.0
07/09:30pm 9.7 5.3 6.6 81 1.5 WSW 19 20 10 11 - - 0.0
07/09:00pm 10.0 6.3 6.2 77 1.9 WSW 15 17 8 9 - - 0.0
07/08:30pm 10.2 6.8 7.8 85 1.2 SW 15 20 8 11 - - 0.0
07/08:00pm 12.3 9.1 8.4 77 2.1 SW 15 20 8 11 - - 0.0
07/07:30pm 13.2 9.3 8.5 73 2.5 SW 19 26 10 14 - - 0.0
07/07:00pm 13.0 9.1 8.7 75 2.3 SSW 19 24 10 13 - - 0.0
07/06:30pm 14.7 10.7 8.4 66 3.4 SW 19 26 10 14 - - 0.0
07/06:00pm 15.6 12.1 7.1 57 4.5 WSW 15 28 8 15 - - 0.0
07/05:30pm 16.3 12.4 5.3 48 5.6 WSW 15 22 8 12 - - 0.0
07/05:00pm 16.6 13.4 5.3 47 5.8 W 11 20 6 11 - - 0.0
07/04:30pm 16.9 13.6 4.6 44 6.2 W 11 20 6 11 - - 0.0

Other formats

Comma delimited format used in spreadsheet applications
http://www.bom.gov.au/fwo/IDV60801/IDV60801.94833.axf

JavaScript Object Notation format (JSON) in row-major order
http://www.bom.gov.au/fwo/IDV60801/IDV60801.94833.json

Data quality

Most of these data are generated automatically and are frequently updated. Quality checks on data are not normally performed. It is possible for incorrect values to appear. Refer to information at About Latest Weather Observations and please check the disclaimer before using these data.